MMPR/PVR METAR and TAF weather

Enter ICAO airport designator
Station Type Date Time Source
MMPR METAR 2021/10/22 18:40 UTC NOAA

MMPR 221840Z 21010KT 15SM FEW025 31/26 A2984 RMK 8/500 HZY CB SE


Station Type Date Time Source
MMPR Decoded METAR 2021/10/22 18:40 UTC NOAA

Puerto Vallarta / Lic, Mexico (MMPR) 20-41N 105-15W
Oct 22, 2021 - 02:40 PM EDT / 2021.10.22 1840 UTC
Wind: from the SSW (210 degrees) at 12 MPH (10 KT):0
Visibility: 15 mile(s):0
Sky conditions: mostly clear
Weather: Cumulonimbus clouds observed
Temperature: 87 F (31 C)
Heat index: 99.7 F (37.6 C):1
Dew Point: 78 F (26 C)
Relative Humidity: 74%
Pressure (altimeter): 29.84 in. Hg (1010 hPa)
ob: MMPR 221840Z 21010KT 15SM FEW025 31/26 A2984 RMK 8/500 HZY CB SE
cycle: 18

Station Type Date Time Source
MMPR TAF 2021/10/22 18:09 UTC NOAA

TAF MMPR 221708Z 2218/2324 21006KT P6SM SCT025 TX32/2222Z TN26/2313Z
BECMG 2220/2221 23012KT SCT025CB SCT220
FM230200 32005KT P6SM SCT025
BECMG 2305/2306 00000KT
FM231000 12005KT P6SM SCT020
TEMPO 2311/2315 BKN020
FM231600 32005KT P6SM SCT020 SCT250
BECMG 2320/2321 28012KT

Example: see airport list